Time;durP1;ratioP1;P1;durP2;ratioP2;P2;SDS_P1;SDS_P2;PMS_P1;PMS_P2;Temp;Humidity;BMP_temperature;BMP_pressure;BME280_temperature;BME280_humidity;BME280_pressure;Samples;Min_cycle;Max_cycle;Signal;HPM_P1;HPM_P2
2023/12/19 00:00:16;;;;;;;18.6;10.9;;;;;;;3.97;73.12;;;;;
2023/12/19 00:10:16;;;;;;;18.6;10.9;;;;;;;3.65;73.9;;;;;
2023/12/19 00:21:16;;;;;;;22;12.3;;;;;;;3.65;77.3;;;;;
2023/12/19 00:32:16;;;;;;;22;12.3;;;;;;;3.58;76.15;;;;;
2023/12/19 00:42:16;;;;;;;22;12.3;;;;;;;3.45;76.14;;;;;
2023/12/19 00:52:16;;;;;;;23;11.3;;;;;;;3.27;75.99;;;;;
2023/12/19 01:02:16;;;;;;;23;11.3;;;;;;;3.07;76.68;;;;;
2023/12/19 01:13:16;;;;;;;23;11.3;;;;;;;2.81;77.34;;;;;
2023/12/19 01:23:16;;;;;;;18.1;10.5;;;;;;;2.68;77.67;;;;;
2023/12/19 01:33:16;;;;;;;18.1;10.5;;;;;;;2.52;78.12;;;;;
2023/12/19 01:43:16;;;;;;;18.1;10.5;;;;;;;2.57;78.93;;;;;
2023/12/19 01:53:16;;;;;;;19.7;11.8;;;;;;;2.63;80.84;;;;;
2023/12/19 02:04:16;;;;;;;19.7;11.8;;;;;;;3.34;79.26;;;;;
2023/12/19 02:14:16;;;;;;;19.7;11.8;;;;;;;3.19;78.25;;;;;
2023/12/19 02:24:16;;;;;;;22.3;11.3;;;;;;;3.11;78.01;;;;;
2023/12/19 02:35:16;;;;;;;22.3;11.3;;;;;;;3.02;77.73;;;;;
2023/12/19 02:46:16;;;;;;;22.3;11.3;;;;;;;2.71;78.03;;;;;
2023/12/19 02:56:16;;;;;;;20;10.7;;;;;;;2.48;78.3;;;;;
2023/12/19 03:07:16;;;;;;;20;10.7;;;;;;;2.57;78.69;;;;;
2023/12/19 03:17:17;;;;;;;20;10.7;;;;;;;2.91;79.39;;;;;
2023/12/19 03:28:16;;;;;;;23.7;12.5;;;;;;;3.09;78.97;;;;;
2023/12/19 03:39:16;;;;;;;23.7;12.5;;;;;;;3.27;78.2;;;;;
2023/12/19 03:50:16;;;;;;;25.9;12.9;;;;;;;3.39;76.84;;;;;
2023/12/19 04:00:18;;;;;;;25.9;12.9;;;;;;;3.67;75;;;;;
2023/12/19 04:10:16;;;;;;;25.9;12.9;;;;;;;3.83;74.85;;;;;
2023/12/19 04:21:16;;;;;;;19.3;9.8;;;;;;;3.92;73.57;;;;;
2023/12/19 04:31:16;;;;;;;19.3;9.8;;;;;;;3.93;73.07;;;;;
2023/12/19 04:42:17;;;;;;;19.3;9.8;;;;;;;3.8;72.31;;;;;
2023/12/19 04:53:16;;;;;;;14.7;8.7;;;;;;;3.89;71.08;;;;;
2023/12/19 05:03:16;;;;;;;14.7;8.7;;;;;;;3.9;71.2;;;;;
2023/12/19 05:14:16;;;;;;;14.7;8.7;;;;;;;3.7;71.31;;;;;
2023/12/19 05:24:16;;;;;;;9.6;5.6;;;;;;;3.42;71.96;;;;;
2023/12/19 05:34:16;;;;;;;9.6;5.6;;;;;;;3.24;72.46;;;;;
2023/12/19 05:44:16;;;;;;;9.6;5.6;;;;;;;3.02;72.98;;;;;
2023/12/19 05:55:17;;;;;;;12.9;6.9;;;;;;;3.13;72.45;;;;;
2023/12/19 06:06:16;;;;;;;12.9;6.9;;;;;;;3.21;72.07;;;;;
2023/12/19 06:16:16;;;;;;;12.9;6.9;;;;;;;3.02;72;;;;;
2023/12/19 06:27:16;;;;;;;9.4;5.9;;;;;;;2.78;72.35;;;;;
2023/12/19 06:38:16;;;;;;;9.4;5.9;;;;;;;2.91;72;;;;;
2023/12/19 06:48:18;;;;;;;6.7;3.7;;;;;;;3.13;71.98;;;;;
2023/12/19 06:58:17;;;;;;;6.7;3.7;;;;;;;3.55;71.62;;;;;
2023/12/19 07:08:16;;;;;;;6.7;3.7;;;;;;;4.15;70.6;;;;;
2023/12/19 07:18:16;;;;;;;6.2;3.8;;;;;;;4.27;70.38;;;;;
2023/12/19 07:29:17;;;;;;;6.2;3.8;;;;;;;4.16;72.05;;;;;
2023/12/19 07:40:16;;;;;;;6.2;3.8;;;;;;;4.26;72.13;;;;;
2023/12/19 07:51:17;;;;;;;14.3;7.1;;;;;;;4.53;70.3;;;;;
2023/12/19 08:01:16;;;;;;;14.3;7.1;;;;;;;4.85;70.19;;;;;
2023/12/19 08:12:16;;;;;;;14.3;7.1;;;;;;;5.24;68.06;;;;;
2023/12/19 08:22:16;;;;;;;10.2;4.4;;;;;;;5.72;67.44;;;;;
2023/12/19 08:32:17;;;;;;;10.2;4.4;;;;;;;6.13;67.13;;;;;
2023/12/19 08:42:16;;;;;;;10.2;4.4;;;;;;;6.64;64.7;;;;;
2023/12/19 08:53:17;;;;;;;12.6;7.1;;;;;;;7.03;61.56;;;;;
2023/12/19 09:03:17;;;;;;;12.6;7.1;;;;;;;7.14;62;;;;;
2023/12/19 09:14:16;;;;;;;12.6;7.1;;;;;;;7.47;61.16;;;;;
2023/12/19 09:24:17;;;;;;;15.7;8.6;;;;;;;7.93;61.22;;;;;
2023/12/19 09:35:17;;;;;;;15.7;8.6;;;;;;;8.51;57.71;;;;;
2023/12/19 09:46:16;;;;;;;15.7;8.6;;;;;;;8.88;58.14;;;;;
2023/12/19 09:56:17;;;;;;;16.6;9.8;;;;;;;9.07;57.81;;;;;
2023/12/19 10:07:17;;;;;;;16.6;9.8;;;;;;;9.04;58.94;;;;;
2023/12/19 10:18:17;;;;;;;29.3;18.1;;;;;;;9.26;58.52;;;;;
2023/12/19 10:28:17;;;;;;;29.3;18.1;;;;;;;9.49;58.86;;;;;
2023/12/19 10:38:17;;;;;;;29.3;18.1;;;;;;;9.82;58.91;;;;;
2023/12/19 10:49:17;;;;;;;27;18.1;;;;;;;9.86;59.2;;;;;
2023/12/19 10:59:17;;;;;;;27;18.1;;;;;;;9.96;59.59;;;;;
2023/12/19 11:10:17;;;;;;;;;;;;;;;;;;;;;
2023/12/19 11:20:17;;;;;;;28.4;18.8;;;;;;;11.58;55.91;;;;;
2023/12/19 11:31:17;;;;;;;28.4;18.8;;;;;;;12.56;49.96;;;;;
2023/12/19 11:41:17;;;;;;;28.4;18.8;;;;;;;12.81;46.65;;;;;
2023/12/19 11:52:17;;;;;;;13.8;9.4;;;;;;;12.67;44.02;;;;;
2023/12/19 12:03:17;;;;;;;13.8;9.4;;;;;;;12.84;44.69;;;;;
2023/12/19 12:14:17;;;;;;;13.8;9.4;;;;;;;13.2;45.48;;;;;
2023/12/19 12:25:18;;;;;;;6.3;3.1;;;;;;;13.83;43.09;;;;;
2023/12/19 12:36:17;;;;;;;6.3;3.1;;;;;;;14.24;41;;;;;
2023/12/19 12:47:17;;;;;;;4.3;2.2;;;;;;;13.48;41.26;;;;;
2023/12/19 12:58:17;;;;;;;4.3;2.2;;;;;;;13.13;42.65;;;;;
2023/12/19 13:08:17;;;;;;;4.3;2.2;;;;;;;12.7;43.41;;;;;
2023/12/19 13:18:17;;;;;;;4.4;2.4;;;;;;;12.35;43.95;;;;;
2023/12/19 13:28:17;;;;;;;4.4;2.4;;;;;;;12.08;44.29;;;;;
2023/12/19 13:39:20;;;;;;;4.4;2.4;;;;;;;11.82;44.51;;;;;
2023/12/19 13:49:17;;;;;;;4.6;2.3;;;;;;;11.7;44.1;;;;;
2023/12/19 14:00:17;;;;;;;4.6;2.3;;;;;;;11.63;44.93;;;;;
2023/12/19 14:11:18;;;;;;;4.6;2.3;;;;;;;11.48;44.96;;;;;
2023/12/19 14:21:17;;;;;;;4.8;2.1;;;;;;;11.24;45.96;;;;;
2023/12/19 14:32:17;;;;;;;4.8;2.1;;;;;;;11.03;45.92;;;;;
2023/12/19 14:42:18;;;;;;;4.8;2.1;;;;;;;10.9;45.54;;;;;
2023/12/19 14:53:17;;;;;;;5.6;3;;;;;;;10.77;44.39;;;;;
2023/12/19 15:03:18;;;;;;;5.6;3;;;;;;;10.71;44.58;;;;;
2023/12/19 15:14:17;;;;;;;5.6;3;;;;;;;10.47;44.67;;;;;
2023/12/19 15:24:17;;;;;;;5.8;2.9;;;;;;;10.29;44;;;;;
2023/12/19 15:34:17;;;;;;;5.8;2.9;;;;;;;10.11;44.05;;;;;
2023/12/19 15:45:19;;;;;;;5.8;2.9;;;;;;;9.96;43.83;;;;;
2023/12/19 15:55:17;;;;;;;4.8;2.4;;;;;;;9.7;43.1;;;;;
2023/12/19 16:06:17;;;;;;;4.8;2.4;;;;;;;9.56;43.35;;;;;
2023/12/19 16:17:17;;;;;;;8;3.1;;;;;;;9.37;43.83;;;;;
2023/12/19 16:28:17;;;;;;;8;3.1;;;;;;;9.33;43.96;;;;;
2023/12/19 16:39:17;;;;;;;8;3.1;;;;;;;9.33;44.27;;;;;
2023/12/19 16:50:17;;;;;;;7.7;3.3;;;;;;;9.32;43.94;;;;;
2023/12/19 17:00:17;;;;;;;7.7;3.3;;;;;;;9.29;43.4;;;;;
2023/12/19 17:11:17;;;;;;;7.7;3.3;;;;;;;8.95;45.13;;;;;
2023/12/19 17:21:17;;;;;;;6.5;3.4;;;;;;;8.61;45.87;;;;;
2023/12/19 17:31:17;;;;;;;6.5;3.4;;;;;;;8.17;46.89;;;;;
2023/12/19 17:41:17;;;;;;;6.5;3.4;;;;;;;7.8;47.48;;;;;
2023/12/19 17:52:18;;;;;;;11.1;5.7;;;;;;;7.19;49.17;;;;;
2023/12/19 18:02:17;;;;;;;11.1;5.7;;;;;;;6.71;50.75;;;;;
2023/12/19 18:13:17;;;;;;;11.1;5.7;;;;;;;6.26;52.78;;;;;
2023/12/19 18:23:17;;;;;;;13.7;7.2;;;;;;;5.96;52.48;;;;;
2023/12/19 18:33:17;;;;;;;13.7;7.2;;;;;;;5.75;53.44;;;;;
2023/12/19 18:44:17;;;;;;;13.7;7.2;;;;;;;5.78;54.14;;;;;
2023/12/19 18:55:17;;;;;;;14.8;6.2;;;;;;;5.72;54.63;;;;;
2023/12/19 19:06:18;;;;;;;14.8;6.2;;;;;;;5.62;53.94;;;;;
2023/12/19 19:17:17;;;;;;;11.3;6.4;;;;;;;5.57;54.52;;;;;
2023/12/19 19:27:17;;;;;;;11.3;6.4;;;;;;;5.57;55.68;;;;;
2023/12/19 19:38:24;;;;;;;11.3;6.4;;;;;;;5.59;55.35;;;;;
2023/12/19 19:49:17;;;;;;;18.7;9.9;;;;;;;5.33;55.35;;;;;
2023/12/19 19:59:21;;;;;;;18.7;9.9;;;;;;;5.16;55.42;;;;;
2023/12/19 20:09:17;;;;;;;18.7;9.9;;;;;;;5.21;56.04;;;;;
2023/12/19 20:19:17;;;;;;;16.9;7.9;;;;;;;5.59;54.39;;;;;
2023/12/19 20:29:19;;;;;;;16.9;7.9;;;;;;;5.77;53.77;;;;;
2023/12/19 20:40:19;;;;;;;16.9;7.9;;;;;;;5.37;54.4;;;;;
2023/12/19 20:50:18;;;;;;;15.6;7.4;;;;;;;5.06;55.18;;;;;
2023/12/19 21:00:17;;;;;;;15.6;7.4;;;;;;;4.83;55.87;;;;;
2023/12/19 21:11:17;;;;;;;15.6;7.4;;;;;;;4.79;57.35;;;;;
2023/12/19 21:22:17;;;;;;;16.9;8.2;;;;;;;4.87;58.04;;;;;
2023/12/19 21:32:17;;;;;;;16.9;8.2;;;;;;;4.94;57.43;;;;;
2023/12/19 21:43:18;;;;;;;16.9;8.2;;;;;;;4.99;57.5;;;;;
2023/12/19 21:54:18;;;;;;;12.6;7.6;;;;;;;5.11;57.41;;;;;
2023/12/19 22:05:17;;;;;;;12.6;7.6;;;;;;;5.38;56.26;;;;;
2023/12/19 22:16:18;;;;;;;14.4;6.3;;;;;;;5.26;56.77;;;;;
2023/12/19 22:26:17;;;;;;;14.4;6.3;;;;;;;5.02;57.14;;;;;
2023/12/19 22:36:18;;;;;;;14.4;6.3;;;;;;;4.88;57.43;;;;;
2023/12/19 22:47:17;;;;;;;18.4;10.1;;;;;;;4.94;58.17;;;;;
2023/12/19 22:57:17;;;;;;;18.4;10.1;;;;;;;5.04;58.89;;;;;
2023/12/19 23:07:17;;;;;;;18.4;10.1;;;;;;;5.16;58.27;;;;;
2023/12/19 23:17:17;;;;;;;26.8;14.5;;;;;;;5.33;58.38;;;;;
2023/12/19 23:27:17;;;;;;;26.8;14.5;;;;;;;5.42;57.95;;;;;
2023/12/19 23:38:18;;;;;;;26.8;14.5;;;;;;;5.49;57.71;;;;;
2023/12/19 23:49:17;;;;;;;17;9.5;;;;;;;5.68;57.04;;;;;
